sensor_id;sensor_type;location;lat;lon;timestamp;temperature;humidity
790;DHT22;378;48.844;9.156;2022-12-18T00:00:42;-8.00;99.90
790;DHT22;378;48.844;9.156;2022-12-18T00:03:09;-8.10;99.90
790;DHT22;378;48.844;9.156;2022-12-18T00:05:45;-8.00;99.90
790;DHT22;378;48.844;9.156;2022-12-18T00:08:12;-8.00;99.90
790;DHT22;378;48.844;9.156;2022-12-18T00:10:38;-8.10;99.90
790;DHT22;378;48.844;9.156;2022-12-18T00:13:05;-8.10;99.90
790;DHT22;378;48.844;9.156;2022-12-18T00:15:33;-8.20;99.90
790;DHT22;378;48.844;9.156;2022-12-18T00:18:00;-8.10;99.90
790;DHT22;378;48.844;9.156;2022-12-18T00:20:27;-8.10;99.90
790;DHT22;378;48.844;9.156;2022-12-18T00:22:58;-8.20;99.90
790;DHT22;378;48.844;9.156;2022-12-18T00:25:28;-8.20;99.90
790;DHT22;378;48.844;9.156;2022-12-18T00:27:55;-8.20;99.90
790;DHT22;378;48.844;9.156;2022-12-18T00:30:22;-8.30;99.90
790;DHT22;378;48.844;9.156;2022-12-18T00:32:49;-8.20;99.90
790;DHT22;378;48.844;9.156;2022-12-18T00:35:16;-8.30;99.90
790;DHT22;378;48.844;9.156;2022-12-18T00:37:43;-8.20;99.90
790;DHT22;378;48.844;9.156;2022-12-18T00:40:12;-8.20;99.90
790;DHT22;378;48.844;9.156;2022-12-18T00:42:38;-8.30;99.90
790;DHT22;378;48.844;9.156;2022-12-18T00:45:26;-8.30;99.90
790;DHT22;378;48.844;9.156;2022-12-18T00:47:54;-8.40;99.90
790;DHT22;378;48.844;9.156;2022-12-18T00:50:22;-8.30;99.90
790;DHT22;378;48.844;9.156;2022-12-18T00:52:50;-8.40;99.90
790;DHT22;378;48.844;9.156;2022-12-18T00:55:18;-8.40;99.90
790;DHT22;378;48.844;9.156;2022-12-18T00:57:45;-8.40;99.90
790;DHT22;378;48.844;9.156;2022-12-18T01:00:14;-8.40;99.90
790;DHT22;378;48.844;9.156;2022-12-18T01:02:41;-8.50;99.90
790;DHT22;378;48.844;9.156;2022-12-18T01:05:09;-8.50;99.90
790;DHT22;378;48.844;9.156;2022-12-18T01:07:36;-8.50;99.90
790;DHT22;378;48.844;9.156;2022-12-18T01:10:04;-8.50;99.90
790;DHT22;378;48.844;9.156;2022-12-18T01:12:32;-8.50;99.90
790;DHT22;378;48.844;9.156;2022-12-18T01:14:59;-8.40;99.90
790;DHT22;378;48.844;9.156;2022-12-18T01:17:26;-8.50;99.90
790;DHT22;378;48.844;9.156;2022-12-18T01:19:53;-8.50;99.90
790;DHT22;378;48.844;9.156;2022-12-18T01:22:20;-8.50;99.90
790;DHT22;378;48.844;9.156;2022-12-18T01:24:46;-8.50;99.90
790;DHT22;378;48.844;9.156;2022-12-18T01:27:13;-8.50;99.90
790;DHT22;378;48.844;9.156;2022-12-18T01:29:41;-8.60;99.90
790;DHT22;378;48.844;9.156;2022-12-18T01:32:09;-8.50;99.90
790;DHT22;378;48.844;9.156;2022-12-18T01:34:36;-8.50;99.90
790;DHT22;378;48.844;9.156;2022-12-18T01:37:04;-8.60;99.90
790;DHT22;378;48.844;9.156;2022-12-18T01:39:32;-8.60;99.90
790;DHT22;378;48.844;9.156;2022-12-18T01:41:59;-8.60;99.90
790;DHT22;378;48.844;9.156;2022-12-18T01:44:55;-8.60;99.90
790;DHT22;378;48.844;9.156;2022-12-18T01:47:25;-8.60;99.90
790;DHT22;378;48.844;9.156;2022-12-18T01:49:53;-8.60;99.90
790;DHT22;378;48.844;9.156;2022-12-18T01:52:21;-8.60;99.90
790;DHT22;378;48.844;9.156;2022-12-18T01:54:51;-8.60;99.90
790;DHT22;378;48.844;9.156;2022-12-18T01:57:19;-8.70;99.90
790;DHT22;378;48.844;9.156;2022-12-18T01:59:49;-8.60;99.90
790;DHT22;378;48.844;9.156;2022-12-18T02:02:19;-8.60;99.90
790;DHT22;378;48.844;9.156;2022-12-18T02:04:46;-8.60;99.90
790;DHT22;378;48.844;9.156;2022-12-18T02:07:20;-8.60;99.90
790;DHT22;378;48.844;9.156;2022-12-18T02:09:52;-8.70;99.90
790;DHT22;378;48.844;9.156;2022-12-18T02:12:22;-8.70;99.90
790;DHT22;378;48.844;9.156;2022-12-18T02:14:55;-8.60;99.90
790;DHT22;378;48.844;9.156;2022-12-18T02:17:30;-8.60;99.90
790;DHT22;378;48.844;9.156;2022-12-18T02:20:08;-8.60;99.90
790;DHT22;378;48.844;9.156;2022-12-18T02:22:45;-8.50;99.90
790;DHT22;378;48.844;9.156;2022-12-18T02:25:26;-8.50;99.90
790;DHT22;378;48.844;9.156;2022-12-18T02:27:59;-8.50;99.90
790;DHT22;378;48.844;9.156;2022-12-18T02:30:30;-8.40;99.90
790;DHT22;378;48.844;9.156;2022-12-18T02:32:58;-8.40;99.90
790;DHT22;378;48.844;9.156;2022-12-18T02:35:29;-8.40;99.90
790;DHT22;378;48.844;9.156;2022-12-18T02:37:57;-8.40;99.90
790;DHT22;378;48.844;9.156;2022-12-18T02:40:26;-8.30;99.90
790;DHT22;378;48.844;9.156;2022-12-18T02:42:54;-8.30;99.90
790;DHT22;378;48.844;9.156;2022-12-18T02:45:22;-8.30;99.90
790;DHT22;378;48.844;9.156;2022-12-18T02:47:50;-8.30;99.90
790;DHT22;378;48.844;9.156;2022-12-18T02:50:30;-8.30;99.90
790;DHT22;378;48.844;9.156;2022-12-18T02:53:06;-8.40;99.90
790;DHT22;378;48.844;9.156;2022-12-18T02:55:45;-8.40;99.90
790;DHT22;378;48.844;9.156;2022-12-18T02:58:17;-8.40;99.90
790;DHT22;378;48.844;9.156;2022-12-18T03:00:53;-8.40;99.90
790;DHT22;378;48.844;9.156;2022-12-18T03:03:28;-8.30;99.90
790;DHT22;378;48.844;9.156;2022-12-18T03:06:00;-8.30;99.90
790;DHT22;378;48.844;9.156;2022-12-18T03:08:31;-8.30;99.90
790;DHT22;378;48.844;9.156;2022-12-18T03:11:02;-8.30;99.90
790;DHT22;378;48.844;9.156;2022-12-18T03:13:33;-8.30;99.90
790;DHT22;378;48.844;9.156;2022-12-18T03:16:05;-8.30;99.90
790;DHT22;378;48.844;9.156;2022-12-18T03:18:35;-8.40;99.90
790;DHT22;378;48.844;9.156;2022-12-18T03:21:05;-8.40;99.90
790;DHT22;378;48.844;9.156;2022-12-18T03:23:34;-8.40;99.90
790;DHT22;378;48.844;9.156;2022-12-18T03:26:05;-8.30;99.90
790;DHT22;378;48.844;9.156;2022-12-18T03:28:38;-8.30;99.90
790;DHT22;378;48.844;9.156;2022-12-18T03:31:10;-8.40;99.90
790;DHT22;378;48.844;9.156;2022-12-18T03:33:39;-8.40;99.90
790;DHT22;378;48.844;9.156;2022-12-18T03:36:08;-8.40;99.90
790;DHT22;378;48.844;9.156;2022-12-18T03:38:35;-8.40;99.90
790;DHT22;378;48.844;9.156;2022-12-18T03:41:08;-8.40;99.90
790;DHT22;378;48.844;9.156;2022-12-18T03:43:44;-8.40;99.90
790;DHT22;378;48.844;9.156;2022-12-18T03:46:24;-8.40;99.90
790;DHT22;378;48.844;9.156;2022-12-18T03:48:55;-8.40;99.90
790;DHT22;378;48.844;9.156;2022-12-18T03:51:26;-8.50;99.90
790;DHT22;378;48.844;9.156;2022-12-18T03:53:58;-8.50;99.90
790;DHT22;378;48.844;9.156;2022-12-18T03:56:28;-8.50;99.90
790;DHT22;378;48.844;9.156;2022-12-18T03:58:57;-8.40;99.90
790;DHT22;378;48.844;9.156;2022-12-18T04:01:31;-8.40;99.90
790;DHT22;378;48.844;9.156;2022-12-18T04:04:00;-8.50;99.90
790;DHT22;378;48.844;9.156;2022-12-18T04:06:28;-8.60;99.90
790;DHT22;378;48.844;9.156;2022-12-18T04:08:56;-8.50;99.90
790;DHT22;378;48.844;9.156;2022-12-18T04:11:23;-8.60;99.90
790;DHT22;378;48.844;9.156;2022-12-18T04:13:50;-8.60;99.90
790;DHT22;378;48.844;9.156;2022-12-18T04:16:21;-8.60;99.90
790;DHT22;378;48.844;9.156;2022-12-18T04:18:49;-8.50;99.90
790;DHT22;378;48.844;9.156;2022-12-18T04:21:16;-8.50;99.90
790;DHT22;378;48.844;9.156;2022-12-18T04:23:43;-8.60;99.90
790;DHT22;378;48.844;9.156;2022-12-18T04:26:10;-8.60;99.90
790;DHT22;378;48.844;9.156;2022-12-18T04:28:37;-8.60;99.90
790;DHT22;378;48.844;9.156;2022-12-18T04:31:04;-8.60;99.90
790;DHT22;378;48.844;9.156;2022-12-18T04:33:31;-8.60;99.90
790;DHT22;378;48.844;9.156;2022-12-18T04:35:59;-8.60;99.90
790;DHT22;378;48.844;9.156;2022-12-18T04:38:26;-8.60;99.90
790;DHT22;378;48.844;9.156;2022-12-18T04:40:53;-8.60;99.90
790;DHT22;378;48.844;9.156;2022-12-18T04:43:19;-8.60;99.90
790;DHT22;378;48.844;9.156;2022-12-18T04:45:46;-8.60;99.90
790;DHT22;378;48.844;9.156;2022-12-18T04:48:13;-8.50;99.90
790;DHT22;378;48.844;9.156;2022-12-18T04:50:40;-8.50;99.90
790;DHT22;378;48.844;9.156;2022-12-18T04:53:08;-8.60;99.90
790;DHT22;378;48.844;9.156;2022-12-18T04:55:35;-8.60;99.90
790;DHT22;378;48.844;9.156;2022-12-18T04:58:02;-8.70;99.90
790;DHT22;378;48.844;9.156;2022-12-18T05:00:28;-8.70;99.90
790;DHT22;378;48.844;9.156;2022-12-18T05:02:55;-8.70;99.90
790;DHT22;378;48.844;9.156;2022-12-18T05:05:22;-8.70;99.90
790;DHT22;378;48.844;9.156;2022-12-18T05:07:49;-8.70;99.90
790;DHT22;378;48.844;9.156;2022-12-18T05:10:17;-8.70;99.90
790;DHT22;378;48.844;9.156;2022-12-18T05:12:44;-8.70;99.90
790;DHT22;378;48.844;9.156;2022-12-18T05:15:26;-8.70;99.90
790;DHT22;378;48.844;9.156;2022-12-18T05:17:53;-8.70;99.90
790;DHT22;378;48.844;9.156;2022-12-18T05:20:19;-8.80;99.90
790;DHT22;378;48.844;9.156;2022-12-18T05:22:46;-8.80;99.90
790;DHT22;378;48.844;9.156;2022-12-18T05:25:13;-8.80;99.90
790;DHT22;378;48.844;9.156;2022-12-18T05:27:41;-8.80;99.90
790;DHT22;378;48.844;9.156;2022-12-18T05:30:09;-8.80;99.90
790;DHT22;378;48.844;9.156;2022-12-18T05:32:36;-8.80;99.90
790;DHT22;378;48.844;9.156;2022-12-18T05:35:05;-8.90;99.90
790;DHT22;378;48.844;9.156;2022-12-18T05:37:32;-8.80;99.90
790;DHT22;378;48.844;9.156;2022-12-18T05:39:59;-8.90;99.90
790;DHT22;378;48.844;9.156;2022-12-18T05:42:26;-8.80;99.90
790;DHT22;378;48.844;9.156;2022-12-18T05:44:54;-8.90;99.90
790;DHT22;378;48.844;9.156;2022-12-18T05:47:21;-8.80;99.90
790;DHT22;378;48.844;9.156;2022-12-18T05:49:47;-8.90;99.90
790;DHT22;378;48.844;9.156;2022-12-18T05:52:14;-8.90;99.90
790;DHT22;378;48.844;9.156;2022-12-18T05:54:41;-8.90;99.90
790;DHT22;378;48.844;9.156;2022-12-18T05:57:08;-8.90;99.90
790;DHT22;378;48.844;9.156;2022-12-18T05:59:35;-8.90;99.90
790;DHT22;378;48.844;9.156;2022-12-18T06:02:04;-9.00;99.90
790;DHT22;378;48.844;9.156;2022-12-18T06:04:30;-9.00;99.90
790;DHT22;378;48.844;9.156;2022-12-18T06:06:57;-9.00;99.90
790;DHT22;378;48.844;9.156;2022-12-18T06:09:24;-9.00;99.90
790;DHT22;378;48.844;9.156;2022-12-18T06:11:51;-9.00;99.90
790;DHT22;378;48.844;9.156;2022-12-18T06:14:18;-9.00;99.90
790;DHT22;378;48.844;9.156;2022-12-18T06:16:45;-9.10;99.90
790;DHT22;378;48.844;9.156;2022-12-18T06:19:16;-9.10;99.90
790;DHT22;378;48.844;9.156;2022-12-18T06:21:43;-9.20;99.90
790;DHT22;378;48.844;9.156;2022-12-18T06:24:10;-9.20;99.90
790;DHT22;378;48.844;9.156;2022-12-18T06:26:37;-9.20;99.90
790;DHT22;378;48.844;9.156;2022-12-18T06:29:05;-9.30;99.90
790;DHT22;378;48.844;9.156;2022-12-18T06:31:32;-9.20;99.90
790;DHT22;378;48.844;9.156;2022-12-18T06:33:59;-9.20;99.90
790;DHT22;378;48.844;9.156;2022-12-18T06:36:27;-9.30;99.90
790;DHT22;378;48.844;9.156;2022-12-18T06:38:57;-9.30;99.90
790;DHT22;378;48.844;9.156;2022-12-18T06:41:24;-9.30;99.90
790;DHT22;378;48.844;9.156;2022-12-18T06:43:51;-9.30;99.90
790;DHT22;378;48.844;9.156;2022-12-18T06:46:18;-9.20;99.90
790;DHT22;378;48.844;9.156;2022-12-18T06:48:47;-9.30;99.90
790;DHT22;378;48.844;9.156;2022-12-18T06:51:19;-9.20;99.90
790;DHT22;378;48.844;9.156;2022-12-18T06:53:47;-9.30;99.90
790;DHT22;378;48.844;9.156;2022-12-18T06:56:14;-9.30;99.90
790;DHT22;378;48.844;9.156;2022-12-18T06:58:41;-9.30;99.90
790;DHT22;378;48.844;9.156;2022-12-18T07:01:10;-9.40;99.90
790;DHT22;378;48.844;9.156;2022-12-18T07:03:38;-9.40;99.90
790;DHT22;378;48.844;9.156;2022-12-18T07:06:05;-9.40;99.90
790;DHT22;378;48.844;9.156;2022-12-18T07:08:33;-9.40;99.90
790;DHT22;378;48.844;9.156;2022-12-18T07:11:03;-9.40;99.90
790;DHT22;378;48.844;9.156;2022-12-18T07:13:30;-9.40;99.90
790;DHT22;378;48.844;9.156;2022-12-18T07:16:03;-9.40;99.90
790;DHT22;378;48.844;9.156;2022-12-18T07:18:30;-9.30;99.90
790;DHT22;378;48.844;9.156;2022-12-18T07:20:57;-9.30;99.90
790;DHT22;378;48.844;9.156;2022-12-18T07:23:24;-9.30;99.90
790;DHT22;378;48.844;9.156;2022-12-18T07:25:51;-9.20;99.90
790;DHT22;378;48.844;9.156;2022-12-18T07:28:19;-9.20;99.90
790;DHT22;378;48.844;9.156;2022-12-18T07:30:46;-9.20;99.90
790;DHT22;378;48.844;9.156;2022-12-18T07:33:13;-9.20;99.90
790;DHT22;378;48.844;9.156;2022-12-18T07:35:39;-9.10;99.90
790;DHT22;378;48.844;9.156;2022-12-18T07:38:06;-9.10;99.90
790;DHT22;378;48.844;9.156;2022-12-18T07:40:33;-9.00;99.90
790;DHT22;378;48.844;9.156;2022-12-18T07:43:00;-9.00;99.90
790;DHT22;378;48.844;9.156;2022-12-18T07:45:28;-8.90;99.90
790;DHT22;378;48.844;9.156;2022-12-18T07:47:58;-8.80;99.90
790;DHT22;378;48.844;9.156;2022-12-18T07:50:25;-8.80;99.90
790;DHT22;378;48.844;9.156;2022-12-18T07:52:51;-8.80;99.90
790;DHT22;378;48.844;9.156;2022-12-18T07:55:18;-8.70;99.90
790;DHT22;378;48.844;9.156;2022-12-18T07:57:45;-8.70;99.90
790;DHT22;378;48.844;9.156;2022-12-18T08:00:13;-8.60;99.90
790;DHT22;378;48.844;9.156;2022-12-18T08:02:41;-8.60;99.90
790;DHT22;378;48.844;9.156;2022-12-18T08:05:08;-8.60;99.90
790;DHT22;378;48.844;9.156;2022-12-18T08:07:35;-8.50;99.90
790;DHT22;378;48.844;9.156;2022-12-18T08:10:02;-8.40;99.90
790;DHT22;378;48.844;9.156;2022-12-18T08:12:29;-8.40;99.90
790;DHT22;378;48.844;9.156;2022-12-18T08:14:56;-8.30;99.90
790;DHT22;378;48.844;9.156;2022-12-18T08:17:23;-8.10;99.90
790;DHT22;378;48.844;9.156;2022-12-18T08:19:51;-8.00;99.90
790;DHT22;378;48.844;9.156;2022-12-18T08:22:18;-7.90;99.90
790;DHT22;378;48.844;9.156;2022-12-18T08:24:45;-7.60;99.90
790;DHT22;378;48.844;9.156;2022-12-18T08:27:12;-7.30;99.90
790;DHT22;378;48.844;9.156;2022-12-18T08:29:38;-7.00;99.90
790;DHT22;378;48.844;9.156;2022-12-18T08:32:05;-6.50;99.90
790;DHT22;378;48.844;9.156;2022-12-18T08:34:32;-6.10;99.90
790;DHT22;378;48.844;9.156;2022-12-18T08:37:01;-5.40;99.90
790;DHT22;378;48.844;9.156;2022-12-18T08:39:27;-4.70;99.90
790;DHT22;378;48.844;9.156;2022-12-18T08:41:54;-4.10;99.90
790;DHT22;378;48.844;9.156;2022-12-18T08:44:38;-3.50;99.90
790;DHT22;378;48.844;9.156;2022-12-18T08:47:06;-3.30;99.90
790;DHT22;378;48.844;9.156;2022-12-18T08:49:33;-3.10;99.90
790;DHT22;378;48.844;9.156;2022-12-18T08:52:02;-2.80;99.90
790;DHT22;378;48.844;9.156;2022-12-18T08:54:30;-2.10;99.90
790;DHT22;378;48.844;9.156;2022-12-18T08:56:57;-1.70;99.90
790;DHT22;378;48.844;9.156;2022-12-18T08:59:23;-1.70;99.90
790;DHT22;378;48.844;9.156;2022-12-18T09:01:53;-1.50;99.90
790;DHT22;378;48.844;9.156;2022-12-18T09:04:20;-1.00;99.90
790;DHT22;378;48.844;9.156;2022-12-18T09:06:47;-1.60;99.90
790;DHT22;378;48.844;9.156;2022-12-18T09:09:15;-1.60;99.90
790;DHT22;378;48.844;9.156;2022-12-18T09:11:42;-1.90;99.90
790;DHT22;378;48.844;9.156;2022-12-18T09:14:10;-1.90;99.90
790;DHT22;378;48.844;9.156;2022-12-18T09:16:37;-1.90;99.90
790;DHT22;378;48.844;9.156;2022-12-18T09:19:04;-1.60;99.90
790;DHT22;378;48.844;9.156;2022-12-18T09:21:33;-1.50;99.90
790;DHT22;378;48.844;9.156;2022-12-18T09:24:04;-1.40;99.90
790;DHT22;378;48.844;9.156;2022-12-18T09:26:33;-1.40;99.90
790;DHT22;378;48.844;9.156;2022-12-18T09:29:00;-1.40;99.90
790;DHT22;378;48.844;9.156;2022-12-18T09:31:27;-1.20;99.90
790;DHT22;378;48.844;9.156;2022-12-18T09:33:55;-1.10;99.90
790;DHT22;378;48.844;9.156;2022-12-18T09:36:21;-1.70;99.90
790;DHT22;378;48.844;9.156;2022-12-18T09:38:48;-1.70;99.90
790;DHT22;378;48.844;9.156;2022-12-18T09:41:29;-1.40;99.90
790;DHT22;378;48.844;9.156;2022-12-18T09:44:01;-1.50;99.90
790;DHT22;378;48.844;9.156;2022-12-18T09:46:32;-1.50;99.90
790;DHT22;378;48.844;9.156;2022-12-18T09:49:03;-1.60;99.90
790;DHT22;378;48.844;9.156;2022-12-18T09:51:36;-2.20;99.90
790;DHT22;378;48.844;9.156;2022-12-18T09:54:06;-2.40;99.90
790;DHT22;378;48.844;9.156;2022-12-18T09:56:38;-2.50;99.90
790;DHT22;378;48.844;9.156;2022-12-18T09:59:18;-2.20;99.90
790;DHT22;378;48.844;9.156;2022-12-18T10:01:46;-2.40;99.90
790;DHT22;378;48.844;9.156;2022-12-18T10:04:13;-2.70;99.90
790;DHT22;378;48.844;9.156;2022-12-18T10:06:45;-2.80;99.90
790;DHT22;378;48.844;9.156;2022-12-18T10:09:19;-2.80;99.90
790;DHT22;378;48.844;9.156;2022-12-18T10:11:56;-2.90;99.90
790;DHT22;378;48.844;9.156;2022-12-18T10:14:32;-2.90;99.90
790;DHT22;378;48.844;9.156;2022-12-18T10:17:09;-2.90;99.90
790;DHT22;378;48.844;9.156;2022-12-18T10:19:40;-3.10;99.90
790;DHT22;378;48.844;9.156;2022-12-18T10:22:21;-3.10;99.90
790;DHT22;378;48.844;9.156;2022-12-18T10:24:55;-3.20;99.90
790;DHT22;378;48.844;9.156;2022-12-18T10:27:25;-3.20;99.90
790;DHT22;378;48.844;9.156;2022-12-18T10:29:53;-3.20;99.90
790;DHT22;378;48.844;9.156;2022-12-18T10:32:22;-3.30;99.90
790;DHT22;378;48.844;9.156;2022-12-18T10:34:52;-3.30;99.90
790;DHT22;378;48.844;9.156;2022-12-18T10:37:24;-3.60;99.90
790;DHT22;378;48.844;9.156;2022-12-18T10:40:10;-3.50;99.90
790;DHT22;378;48.844;9.156;2022-12-18T10:42:38;-3.50;99.90
790;DHT22;378;48.844;9.156;2022-12-18T10:45:11;-3.40;99.90
790;DHT22;378;48.844;9.156;2022-12-18T10:47:43;-3.70;99.90
790;DHT22;378;48.844;9.156;2022-12-18T10:50:19;-3.80;99.90
790;DHT22;378;48.844;9.156;2022-12-18T10:52:55;-3.80;99.90
790;DHT22;378;48.844;9.156;2022-12-18T10:55:23;-3.80;99.90
790;DHT22;378;48.844;9.156;2022-12-18T10:57:51;-3.80;99.90
790;DHT22;378;48.844;9.156;2022-12-18T11:00:30;-3.80;99.90
790;DHT22;378;48.844;9.156;2022-12-18T11:02:57;-3.80;99.90
790;DHT22;378;48.844;9.156;2022-12-18T11:05:29;-3.70;99.90
790;DHT22;378;48.844;9.156;2022-12-18T11:07:57;-3.50;99.90
790;DHT22;378;48.844;9.156;2022-12-18T11:10:28;-3.50;99.90
790;DHT22;378;48.844;9.156;2022-12-18T11:13:11;-3.50;99.90
790;DHT22;378;48.844;9.156;2022-12-18T11:15:41;-3.50;99.90
790;DHT22;378;48.844;9.156;2022-12-18T11:18:17;-3.40;99.90
790;DHT22;378;48.844;9.156;2022-12-18T11:20:51;-3.30;99.90
790;DHT22;378;48.844;9.156;2022-12-18T11:23:19;-3.20;99.90
790;DHT22;378;48.844;9.156;2022-12-18T11:25:52;-3.20;99.90
790;DHT22;378;48.844;9.156;2022-12-18T11:28:37;-3.20;99.90
790;DHT22;378;48.844;9.156;2022-12-18T11:31:21;-3.00;99.90
790;DHT22;378;48.844;9.156;2022-12-18T11:33:56;-3.00;99.90
790;DHT22;378;48.844;9.156;2022-12-18T11:36:26;-3.00;99.90
790;DHT22;378;48.844;9.156;2022-12-18T11:38:55;-2.90;99.90
790;DHT22;378;48.844;9.156;2022-12-18T11:41:27;-2.80;99.90
790;DHT22;378;48.844;9.156;2022-12-18T11:44:11;-2.70;99.90
790;DHT22;378;48.844;9.156;2022-12-18T11:46:47;-2.60;99.90
790;DHT22;378;48.844;9.156;2022-12-18T11:49:19;-2.60;99.90
790;DHT22;378;48.844;9.156;2022-12-18T11:51:50;-2.50;99.90
790;DHT22;378;48.844;9.156;2022-12-18T11:54:18;-2.40;99.90
790;DHT22;378;48.844;9.156;2022-12-18T11:56:48;-2.20;99.90
790;DHT22;378;48.844;9.156;2022-12-18T11:59:24;-2.20;99.90
790;DHT22;378;48.844;9.156;2022-12-18T12:02:03;-2.10;99.90
790;DHT22;378;48.844;9.156;2022-12-18T12:04:54;-2.00;99.90
790;DHT22;378;48.844;9.156;2022-12-18T12:07:33;-1.80;99.90
790;DHT22;378;48.844;9.156;2022-12-18T12:10:13;-1.80;99.90
790;DHT22;378;48.844;9.156;2022-12-18T12:12:51;-1.90;99.90
790;DHT22;378;48.844;9.156;2022-12-18T12:15:28;-1.80;99.90
790;DHT22;378;48.844;9.156;2022-12-18T12:18:05;-1.80;99.90
790;DHT22;378;48.844;9.156;2022-12-18T12:20:43;-1.70;99.90
790;DHT22;378;48.844;9.156;2022-12-18T12:23:19;-1.70;99.90
790;DHT22;378;48.844;9.156;2022-12-18T12:25:52;-1.60;99.90
790;DHT22;378;48.844;9.156;2022-12-18T12:28:48;-1.50;99.90
790;DHT22;378;48.844;9.156;2022-12-18T12:31:21;-1.50;99.90
790;DHT22;378;48.844;9.156;2022-12-18T12:33:58;-1.40;99.90
790;DHT22;378;48.844;9.156;2022-12-18T12:36:33;-1.40;99.90
790;DHT22;378;48.844;9.156;2022-12-18T12:39:07;-1.50;99.90
790;DHT22;378;48.844;9.156;2022-12-18T12:41:35;-1.50;99.90
790;DHT22;378;48.844;9.156;2022-12-18T12:44:24;-1.50;99.90
790;DHT22;378;48.844;9.156;2022-12-18T12:46:57;-1.40;99.90
790;DHT22;378;48.844;9.156;2022-12-18T12:49:30;-1.30;99.90
790;DHT22;378;48.844;9.156;2022-12-18T12:52:05;-1.30;99.90
790;DHT22;378;48.844;9.156;2022-12-18T12:54:33;-1.20;99.90
790;DHT22;378;48.844;9.156;2022-12-18T12:57:05;-1.20;99.90
790;DHT22;378;48.844;9.156;2022-12-18T12:59:45;-0.90;99.90
790;DHT22;378;48.844;9.156;2022-12-18T13:02:20;-0.90;99.90
790;DHT22;378;48.844;9.156;2022-12-18T13:04:52;-0.90;99.90
790;DHT22;378;48.844;9.156;2022-12-18T13:07:27;-0.70;99.90
790;DHT22;378;48.844;9.156;2022-12-18T13:10:26;-0.70;99.90
790;DHT22;378;48.844;9.156;2022-12-18T13:12:55;-0.70;99.90
790;DHT22;378;48.844;9.156;2022-12-18T13:15:24;-0.80;99.90
790;DHT22;378;48.844;9.156;2022-12-18T13:18:04;-0.70;99.90
790;DHT22;378;48.844;9.156;2022-12-18T13:20:37;-0.70;99.90
790;DHT22;378;48.844;9.156;2022-12-18T13:23:25;-0.60;99.90
790;DHT22;378;48.844;9.156;2022-12-18T13:25:54;-0.70;99.90
790;DHT22;378;48.844;9.156;2022-12-18T13:28:22;-0.80;99.90
790;DHT22;378;48.844;9.156;2022-12-18T13:30:53;-0.80;99.90
790;DHT22;378;48.844;9.156;2022-12-18T13:33:47;-0.70;99.90
790;DHT22;378;48.844;9.156;2022-12-18T13:36:31;-0.70;99.90
790;DHT22;378;48.844;9.156;2022-12-18T13:39:24;-0.60;99.90
790;DHT22;378;48.844;9.156;2022-12-18T13:41:53;-0.60;99.90
790;DHT22;378;48.844;9.156;2022-12-18T13:44:32;-0.50;99.90
790;DHT22;378;48.844;9.156;2022-12-18T13:47:00;-0.50;99.90
790;DHT22;378;48.844;9.156;2022-12-18T13:49:36;-0.60;99.90
790;DHT22;378;48.844;9.156;2022-12-18T13:52:16;-0.70;99.90
790;DHT22;378;48.844;9.156;2022-12-18T13:54:47;-0.80;99.90
790;DHT22;378;48.844;9.156;2022-12-18T13:57:26;-0.90;99.90
790;DHT22;378;48.844;9.156;2022-12-18T13:59:54;-0.90;99.90
790;DHT22;378;48.844;9.156;2022-12-18T14:02:22;-1.00;99.90
790;DHT22;378;48.844;9.156;2022-12-18T14:04:50;-1.00;99.90
790;DHT22;378;48.844;9.156;2022-12-18T14:07:20;-1.00;99.90
790;DHT22;378;48.844;9.156;2022-12-18T14:09:50;-0.90;99.90
790;DHT22;378;48.844;9.156;2022-12-18T14:12:21;-1.00;99.90
790;DHT22;378;48.844;9.156;2022-12-18T14:15:17;-1.00;99.90
790;DHT22;378;48.844;9.156;2022-12-18T14:17:49;-1.00;99.90
790;DHT22;378;48.844;9.156;2022-12-18T14:20:17;-1.10;99.90
790;DHT22;378;48.844;9.156;2022-12-18T14:22:48;-1.30;99.90
790;DHT22;378;48.844;9.156;2022-12-18T14:25:18;-1.40;99.90
790;DHT22;378;48.844;9.156;2022-12-18T14:27:47;-1.50;99.90
790;DHT22;378;48.844;9.156;2022-12-18T14:30:33;-1.60;99.90
790;DHT22;378;48.844;9.156;2022-12-18T14:33:08;-1.70;99.90
790;DHT22;378;48.844;9.156;2022-12-18T14:35:38;-1.70;99.90
790;DHT22;378;48.844;9.156;2022-12-18T14:38:22;-1.70;99.90
790;DHT22;378;48.844;9.156;2022-12-18T14:40:52;-1.70;99.90
790;DHT22;378;48.844;9.156;2022-12-18T14:43:20;-1.80;99.90
790;DHT22;378;48.844;9.156;2022-12-18T14:45:47;-1.90;99.90
790;DHT22;378;48.844;9.156;2022-12-18T14:48:17;-2.00;99.90
790;DHT22;378;48.844;9.156;2022-12-18T14:50:45;-2.00;99.90
790;DHT22;378;48.844;9.156;2022-12-18T14:53:28;-2.10;99.90
790;DHT22;378;48.844;9.156;2022-12-18T14:55:57;-2.10;99.90
790;DHT22;378;48.844;9.156;2022-12-18T14:58:24;-2.20;99.90
790;DHT22;378;48.844;9.156;2022-12-18T15:00:51;-2.30;99.90
790;DHT22;378;48.844;9.156;2022-12-18T15:03:20;-2.30;99.90
790;DHT22;378;48.844;9.156;2022-12-18T15:05:47;-2.40;99.90
790;DHT22;378;48.844;9.156;2022-12-18T15:08:29;-2.50;99.90
790;DHT22;378;48.844;9.156;2022-12-18T15:10:57;-2.60;99.90
790;DHT22;378;48.844;9.156;2022-12-18T15:13:24;-2.60;99.90
790;DHT22;378;48.844;9.156;2022-12-18T15:15:52;-2.70;99.90
790;DHT22;378;48.844;9.156;2022-12-18T15:18:20;-2.80;99.90
790;DHT22;378;48.844;9.156;2022-12-18T15:20:50;-2.80;99.90
790;DHT22;378;48.844;9.156;2022-12-18T15:23:19;-2.80;99.90
790;DHT22;378;48.844;9.156;2022-12-18T15:25:53;-2.80;99.90
790;DHT22;378;48.844;9.156;2022-12-18T15:28:25;-2.90;99.90
790;DHT22;378;48.844;9.156;2022-12-18T15:31:04;-2.90;99.90
790;DHT22;378;48.844;9.156;2022-12-18T15:33:33;-2.90;99.90
790;DHT22;378;48.844;9.156;2022-12-18T15:36:02;-3.00;99.90
790;DHT22;378;48.844;9.156;2022-12-18T15:38:30;-3.00;99.90
790;DHT22;378;48.844;9.156;2022-12-18T15:40:58;-3.00;99.90
790;DHT22;378;48.844;9.156;2022-12-18T15:43:26;-3.10;99.90
790;DHT22;378;48.844;9.156;2022-12-18T15:46:03;-3.10;99.90
790;DHT22;378;48.844;9.156;2022-12-18T15:48:32;-3.10;99.90
790;DHT22;378;48.844;9.156;2022-12-18T15:51:00;-3.10;99.90
790;DHT22;378;48.844;9.156;2022-12-18T15:53:30;-3.10;99.90
790;DHT22;378;48.844;9.156;2022-12-18T15:55:59;-3.10;99.90
790;DHT22;378;48.844;9.156;2022-12-18T15:58:43;-3.20;99.90
790;DHT22;378;48.844;9.156;2022-12-18T16:01:10;-3.20;99.90
790;DHT22;378;48.844;9.156;2022-12-18T16:03:37;-3.30;99.90
790;DHT22;378;48.844;9.156;2022-12-18T16:06:05;-3.30;99.90
790;DHT22;378;48.844;9.156;2022-12-18T16:08:32;-3.30;99.90
790;DHT22;378;48.844;9.156;2022-12-18T16:11:00;-3.30;99.90
790;DHT22;378;48.844;9.156;2022-12-18T16:13:27;-3.30;99.90
790;DHT22;378;48.844;9.156;2022-12-18T16:15:54;-3.30;99.90
790;DHT22;378;48.844;9.156;2022-12-18T16:18:21;-3.30;99.90
790;DHT22;378;48.844;9.156;2022-12-18T16:20:48;-3.30;99.90
790;DHT22;378;48.844;9.156;2022-12-18T16:23:14;-3.30;99.90
790;DHT22;378;48.844;9.156;2022-12-18T16:25:41;-3.30;99.90
790;DHT22;378;48.844;9.156;2022-12-18T16:28:10;-3.30;99.90
790;DHT22;378;48.844;9.156;2022-12-18T16:30:37;-3.30;99.90
790;DHT22;378;48.844;9.156;2022-12-18T16:33:04;-3.30;99.90
790;DHT22;378;48.844;9.156;2022-12-18T16:35:30;-3.40;99.90
790;DHT22;378;48.844;9.156;2022-12-18T16:37:58;-3.40;99.90
790;DHT22;378;48.844;9.156;2022-12-18T16:40:24;-3.40;99.90
790;DHT22;378;48.844;9.156;2022-12-18T16:42:51;-3.40;99.90
790;DHT22;378;48.844;9.156;2022-12-18T16:45:20;-3.40;99.90
790;DHT22;378;48.844;9.156;2022-12-18T16:47:46;-3.40;99.90
790;DHT22;378;48.844;9.156;2022-12-18T16:50:14;-3.40;99.90
790;DHT22;378;48.844;9.156;2022-12-18T16:52:41;-3.40;99.90
790;DHT22;378;48.844;9.156;2022-12-18T16:55:09;-3.40;99.90